sensor_id;sensor_type;location;lat;lon;timestamp;temperature;humidity
3713;DHT22;1872;51.406;6.856;2022-11-20T00:02:09;0.00;99.90
3713;DHT22;1872;51.406;6.856;2022-11-20T00:04:35;0.00;99.90
3713;DHT22;1872;51.406;6.856;2022-11-20T00:07:00;-0.10;99.90
3713;DHT22;1872;51.406;6.856;2022-11-20T00:09:26;-0.10;99.90
3713;DHT22;1872;51.406;6.856;2022-11-20T00:11:51;-0.10;99.90
3713;DHT22;1872;51.406;6.856;2022-11-20T00:14:17;-0.10;99.90
3713;DHT22;1872;51.406;6.856;2022-11-20T00:16:43;0.00;99.90
3713;DHT22;1872;51.406;6.856;2022-11-20T00:19:09;0.10;99.90
3713;DHT22;1872;51.406;6.856;2022-11-20T00:21:34;0.10;99.90
3713;DHT22;1872;51.406;6.856;2022-11-20T00:24:00;0.20;99.90
3713;DHT22;1872;51.406;6.856;2022-11-20T00:26:27;0.20;99.90
3713;DHT22;1872;51.406;6.856;2022-11-20T00:28:55;0.30;99.90
3713;DHT22;1872;51.406;6.856;2022-11-20T00:31:21;0.30;99.90
3713;DHT22;1872;51.406;6.856;2022-11-20T00:33:47;0.40;99.90
3713;DHT22;1872;51.406;6.856;2022-11-20T00:36:15;0.40;99.90
3713;DHT22;1872;51.406;6.856;2022-11-20T00:38:41;0.50;99.90
3713;DHT22;1872;51.406;6.856;2022-11-20T00:41:09;0.50;99.90
3713;DHT22;1872;51.406;6.856;2022-11-20T00:43:37;0.60;99.90
3713;DHT22;1872;51.406;6.856;2022-11-20T00:46:24;0.60;99.90
3713;DHT22;1872;51.406;6.856;2022-11-20T00:48:50;0.60;99.90
3713;DHT22;1872;51.406;6.856;2022-11-20T00:51:19;0.70;99.90
3713;DHT22;1872;51.406;6.856;2022-11-20T00:53:45;0.70;99.90
3713;DHT22;1872;51.406;6.856;2022-11-20T00:56:13;0.70;99.90
3713;DHT22;1872;51.406;6.856;2022-11-20T00:58:41;0.80;99.90
3713;DHT22;1872;51.406;6.856;2022-11-20T01:01:12;0.80;99.90
3713;DHT22;1872;51.406;6.856;2022-11-20T01:03:40;0.70;99.90
3713;DHT22;1872;51.406;6.856;2022-11-20T01:06:18;0.70;99.90
3713;DHT22;1872;51.406;6.856;2022-11-20T01:08:45;0.70;99.90
3713;DHT22;1872;51.406;6.856;2022-11-20T01:11:16;0.70;99.90
3713;DHT22;1872;51.406;6.856;2022-11-20T01:13:44;0.70;99.90
3713;DHT22;1872;51.406;6.856;2022-11-20T01:16:28;0.70;99.90
3713;DHT22;1872;51.406;6.856;2022-11-20T01:18:56;0.80;99.90
3713;DHT22;1872;51.406;6.856;2022-11-20T01:21:25;0.80;99.90
3713;DHT22;1872;51.406;6.856;2022-11-20T01:23:52;0.80;99.90
3713;DHT22;1872;51.406;6.856;2022-11-20T01:26:20;0.90;99.90
3713;DHT22;1872;51.406;6.856;2022-11-20T01:28:46;0.90;99.90
3713;DHT22;1872;51.406;6.856;2022-11-20T01:31:18;0.90;99.90
3713;DHT22;1872;51.406;6.856;2022-11-20T01:33:45;0.80;99.90
3713;DHT22;1872;51.406;6.856;2022-11-20T01:36:12;0.80;99.90
3713;DHT22;1872;51.406;6.856;2022-11-20T01:38:38;0.90;99.90
3713;DHT22;1872;51.406;6.856;2022-11-20T01:41:05;0.90;99.90
3713;DHT22;1872;51.406;6.856;2022-11-20T01:43:31;0.90;99.90
3713;DHT22;1872;51.406;6.856;2022-11-20T01:48:30;1.00;99.90
3713;DHT22;1872;51.406;6.856;2022-11-20T01:50:58;1.00;99.90
3713;DHT22;1872;51.406;6.856;2022-11-20T01:53:28;1.00;99.90
3713;DHT22;1872;51.406;6.856;2022-11-20T01:55:57;1.00;99.90
3713;DHT22;1872;51.406;6.856;2022-11-20T01:58:28;1.00;99.90
3713;DHT22;1872;51.406;6.856;2022-11-20T02:00:55;1.10;99.90
3713;DHT22;1872;51.406;6.856;2022-11-20T02:03:21;1.10;99.90
3713;DHT22;1872;51.406;6.856;2022-11-20T02:08:18;1.20;99.90
3713;DHT22;1872;51.406;6.856;2022-11-20T02:10:44;1.20;99.90
3713;DHT22;1872;51.406;6.856;2022-11-20T02:13:10;1.20;99.90
3713;DHT22;1872;51.406;6.856;2022-11-20T02:15:55;1.20;99.90
3713;DHT22;1872;51.406;6.856;2022-11-20T02:18:21;1.20;99.90
3713;DHT22;1872;51.406;6.856;2022-11-20T02:20:50;1.20;99.90
3713;DHT22;1872;51.406;6.856;2022-11-20T02:23:39;1.20;99.90
3713;DHT22;1872;51.406;6.856;2022-11-20T02:26:11;1.20;99.90
3713;DHT22;1872;51.406;6.856;2022-11-20T02:28:38;1.20;99.90
3713;DHT22;1872;51.406;6.856;2022-11-20T02:31:04;1.20;99.90
3713;DHT22;1872;51.406;6.856;2022-11-20T02:33:30;1.30;99.90
3713;DHT22;1872;51.406;6.856;2022-11-20T02:35:56;1.30;99.90
3713;DHT22;1872;51.406;6.856;2022-11-20T02:38:22;1.30;99.90
3713;DHT22;1872;51.406;6.856;2022-11-20T02:40:47;1.30;99.90
3713;DHT22;1872;51.406;6.856;2022-11-20T02:43:13;1.40;99.90
3713;DHT22;1872;51.406;6.856;2022-11-20T02:45:41;1.40;99.90
3713;DHT22;1872;51.406;6.856;2022-11-20T02:48:06;1.40;99.90
3713;DHT22;1872;51.406;6.856;2022-11-20T02:50:33;1.40;99.90
3713;DHT22;1872;51.406;6.856;2022-11-20T02:52:58;1.50;99.90
3713;DHT22;1872;51.406;6.856;2022-11-20T02:55:24;1.50;99.90
3713;DHT22;1872;51.406;6.856;2022-11-20T02:57:50;1.50;99.90
3713;DHT22;1872;51.406;6.856;2022-11-20T03:00:15;1.50;99.90
3713;DHT22;1872;51.406;6.856;2022-11-20T03:02:41;1.50;99.90
3713;DHT22;1872;51.406;6.856;2022-11-20T03:05:07;1.50;99.90
3713;DHT22;1872;51.406;6.856;2022-11-20T03:07:32;1.40;99.90
3713;DHT22;1872;51.406;6.856;2022-11-20T03:09:58;1.50;99.90
3713;DHT22;1872;51.406;6.856;2022-11-20T03:12:24;1.50;99.90
3713;DHT22;1872;51.406;6.856;2022-11-20T03:14:49;1.50;99.90
3713;DHT22;1872;51.406;6.856;2022-11-20T03:17:16;1.60;99.90
3713;DHT22;1872;51.406;6.856;2022-11-20T03:19:41;1.60;99.90
3713;DHT22;1872;51.406;6.856;2022-11-20T03:22:07;1.60;99.90
3713;DHT22;1872;51.406;6.856;2022-11-20T03:24:33;1.60;99.90
3713;DHT22;1872;51.406;6.856;2022-11-20T03:26:58;1.70;99.90
3713;DHT22;1872;51.406;6.856;2022-11-20T03:29:24;1.60;99.90
3713;DHT22;1872;51.406;6.856;2022-11-20T03:31:50;1.60;99.90
3713;DHT22;1872;51.406;6.856;2022-11-20T03:34:16;1.60;99.90
3713;DHT22;1872;51.406;6.856;2022-11-20T03:36:42;1.70;99.90
3713;DHT22;1872;51.406;6.856;2022-11-20T03:39:08;1.60;99.90
3713;DHT22;1872;51.406;6.856;2022-11-20T03:41:39;1.60;99.90
3713;DHT22;1872;51.406;6.856;2022-11-20T03:44:08;1.70;99.90
3713;DHT22;1872;51.406;6.856;2022-11-20T03:46:34;1.80;99.90
3713;DHT22;1872;51.406;6.856;2022-11-20T03:49:00;1.80;99.90
3713;DHT22;1872;51.406;6.856;2022-11-20T03:51:30;1.80;99.90
3713;DHT22;1872;51.406;6.856;2022-11-20T03:53:59;1.90;99.90
3713;DHT22;1872;51.406;6.856;2022-11-20T03:56:30;1.90;99.90
3713;DHT22;1872;51.406;6.856;2022-11-20T03:58:56;1.90;99.90
3713;DHT22;1872;51.406;6.856;2022-11-20T04:01:24;1.90;99.90
3713;DHT22;1872;51.406;6.856;2022-11-20T04:03:53;1.90;99.90
3713;DHT22;1872;51.406;6.856;2022-11-20T04:06:21;2.00;99.90
3713;DHT22;1872;51.406;6.856;2022-11-20T04:08:47;2.00;99.90
3713;DHT22;1872;51.406;6.856;2022-11-20T04:11:15;2.00;99.90
3713;DHT22;1872;51.406;6.856;2022-11-20T04:13:42;2.00;99.90
3713;DHT22;1872;51.406;6.856;2022-11-20T04:16:09;2.10;99.90
3713;DHT22;1872;51.406;6.856;2022-11-20T04:18:35;2.10;99.90
3713;DHT22;1872;51.406;6.856;2022-11-20T04:21:02;2.10;99.90
3713;DHT22;1872;51.406;6.856;2022-11-20T04:23:28;2.20;99.90
3713;DHT22;1872;51.406;6.856;2022-11-20T04:25:55;2.20;99.90
3713;DHT22;1872;51.406;6.856;2022-11-20T04:28:25;2.20;99.90
3713;DHT22;1872;51.406;6.856;2022-11-20T04:30:51;2.20;99.90
3713;DHT22;1872;51.406;6.856;2022-11-20T04:33:16;2.20;99.90
3713;DHT22;1872;51.406;6.856;2022-11-20T04:35:42;2.20;99.90
3713;DHT22;1872;51.406;6.856;2022-11-20T04:38:09;2.20;99.90
3713;DHT22;1872;51.406;6.856;2022-11-20T04:40:35;2.20;99.90
3713;DHT22;1872;51.406;6.856;2022-11-20T04:43:00;2.20;99.90
3713;DHT22;1872;51.406;6.856;2022-11-20T04:45:26;2.20;99.90
3713;DHT22;1872;51.406;6.856;2022-11-20T04:47:52;2.20;99.90
3713;DHT22;1872;51.406;6.856;2022-11-20T04:50:18;2.20;99.90
3713;DHT22;1872;51.406;6.856;2022-11-20T04:52:44;2.30;99.90
3713;DHT22;1872;51.406;6.856;2022-11-20T04:55:09;2.30;99.90
3713;DHT22;1872;51.406;6.856;2022-11-20T04:57:35;2.20;99.90
3713;DHT22;1872;51.406;6.856;2022-11-20T05:00:00;2.30;99.90
3713;DHT22;1872;51.406;6.856;2022-11-20T05:02:26;2.30;99.90
3713;DHT22;1872;51.406;6.856;2022-11-20T05:04:52;2.30;99.90
3713;DHT22;1872;51.406;6.856;2022-11-20T05:07:17;2.30;99.90
3713;DHT22;1872;51.406;6.856;2022-11-20T05:09:43;2.30;99.90
3713;DHT22;1872;51.406;6.856;2022-11-20T05:12:09;2.30;99.90
3713;DHT22;1872;51.406;6.856;2022-11-20T05:14:34;2.30;99.90
3713;DHT22;1872;51.406;6.856;2022-11-20T05:17:00;2.30;99.90
3713;DHT22;1872;51.406;6.856;2022-11-20T05:19:26;2.40;99.90
3713;DHT22;1872;51.406;6.856;2022-11-20T05:21:51;2.40;99.90
3713;DHT22;1872;51.406;6.856;2022-11-20T05:24:17;2.40;99.90
3713;DHT22;1872;51.406;6.856;2022-11-20T05:26:43;2.50;99.90
3713;DHT22;1872;51.406;6.856;2022-11-20T05:29:12;2.50;99.90
3713;DHT22;1872;51.406;6.856;2022-11-20T05:31:39;2.40;99.90
3713;DHT22;1872;51.406;6.856;2022-11-20T05:34:06;2.40;99.90
3713;DHT22;1872;51.406;6.856;2022-11-20T05:36:32;2.40;99.90
3713;DHT22;1872;51.406;6.856;2022-11-20T05:38:57;2.50;99.90
3713;DHT22;1872;51.406;6.856;2022-11-20T05:41:23;2.40;99.90
3713;DHT22;1872;51.406;6.856;2022-11-20T05:43:49;2.50;99.90
3713;DHT22;1872;51.406;6.856;2022-11-20T05:46:17;2.40;99.90
3713;DHT22;1872;51.406;6.856;2022-11-20T05:48:44;2.40;99.90
3713;DHT22;1872;51.406;6.856;2022-11-20T05:51:13;2.40;99.90
3713;DHT22;1872;51.406;6.856;2022-11-20T05:53:38;2.40;99.90
3713;DHT22;1872;51.406;6.856;2022-11-20T05:56:06;2.50;99.90
3713;DHT22;1872;51.406;6.856;2022-11-20T05:58:33;2.50;99.90
3713;DHT22;1872;51.406;6.856;2022-11-20T06:01:11;2.50;99.90
3713;DHT22;1872;51.406;6.856;2022-11-20T06:03:39;2.60;99.90
3713;DHT22;1872;51.406;6.856;2022-11-20T06:06:05;2.60;99.90
3713;DHT22;1872;51.406;6.856;2022-11-20T06:08:31;2.50;99.90
3713;DHT22;1872;51.406;6.856;2022-11-20T06:10:58;2.50;99.90
3713;DHT22;1872;51.406;6.856;2022-11-20T06:13:24;2.50;99.90
3713;DHT22;1872;51.406;6.856;2022-11-20T06:15:53;2.50;99.90
3713;DHT22;1872;51.406;6.856;2022-11-20T06:18:19;2.50;99.90
3713;DHT22;1872;51.406;6.856;2022-11-20T06:20:45;2.60;99.90
3713;DHT22;1872;51.406;6.856;2022-11-20T06:23:11;2.60;99.90
3713;DHT22;1872;51.406;6.856;2022-11-20T06:25:38;2.60;99.90
3713;DHT22;1872;51.406;6.856;2022-11-20T06:28:04;2.50;99.90
3713;DHT22;1872;51.406;6.856;2022-11-20T06:30:30;2.50;99.90
3713;DHT22;1872;51.406;6.856;2022-11-20T06:32:55;2.50;99.90
3713;DHT22;1872;51.406;6.856;2022-11-20T06:35:21;2.50;99.90
3713;DHT22;1872;51.406;6.856;2022-11-20T06:37:46;2.60;99.90
3713;DHT22;1872;51.406;6.856;2022-11-20T06:40:12;2.50;99.90
3713;DHT22;1872;51.406;6.856;2022-11-20T06:42:38;2.50;99.90
3713;DHT22;1872;51.406;6.856;2022-11-20T06:45:04;2.50;99.90
3713;DHT22;1872;51.406;6.856;2022-11-20T06:47:30;2.50;99.90
3713;DHT22;1872;51.406;6.856;2022-11-20T06:49:55;2.50;99.90
3713;DHT22;1872;51.406;6.856;2022-11-20T06:52:21;2.50;99.90
3713;DHT22;1872;51.406;6.856;2022-11-20T06:54:46;2.50;99.90
3713;DHT22;1872;51.406;6.856;2022-11-20T06:57:12;2.40;99.90
3713;DHT22;1872;51.406;6.856;2022-11-20T06:59:38;2.40;99.90
3713;DHT22;1872;51.406;6.856;2022-11-20T07:02:03;2.40;99.90
3713;DHT22;1872;51.406;6.856;2022-11-20T07:04:29;2.40;99.90
3713;DHT22;1872;51.406;6.856;2022-11-20T07:06:54;2.40;99.90
3713;DHT22;1872;51.406;6.856;2022-11-20T07:09:20;2.40;99.90
3713;DHT22;1872;51.406;6.856;2022-11-20T07:11:46;2.50;99.90
3713;DHT22;1872;51.406;6.856;2022-11-20T07:14:11;2.50;99.90
3713;DHT22;1872;51.406;6.856;2022-11-20T07:16:37;2.50;99.90
3713;DHT22;1872;51.406;6.856;2022-11-20T07:19:02;2.50;99.90
3713;DHT22;1872;51.406;6.856;2022-11-20T07:21:28;2.50;99.90
3713;DHT22;1872;51.406;6.856;2022-11-20T07:23:54;2.60;99.90
3713;DHT22;1872;51.406;6.856;2022-11-20T07:26:20;2.70;99.90
3713;DHT22;1872;51.406;6.856;2022-11-20T07:28:45;2.70;99.90
3713;DHT22;1872;51.406;6.856;2022-11-20T07:31:11;2.70;99.90
3713;DHT22;1872;51.406;6.856;2022-11-20T07:33:38;2.70;99.90
3713;DHT22;1872;51.406;6.856;2022-11-20T07:36:04;2.70;99.90
3713;DHT22;1872;51.406;6.856;2022-11-20T07:38:30;2.60;99.90
3713;DHT22;1872;51.406;6.856;2022-11-20T07:40:57;2.70;99.90
3713;DHT22;1872;51.406;6.856;2022-11-20T07:43:23;2.70;99.90
3713;DHT22;1872;51.406;6.856;2022-11-20T07:45:50;2.70;99.90
3713;DHT22;1872;51.406;6.856;2022-11-20T07:48:16;2.80;99.90
3713;DHT22;1872;51.406;6.856;2022-11-20T07:50:41;2.90;99.90
3713;DHT22;1872;51.406;6.856;2022-11-20T07:53:07;2.90;99.90
3713;DHT22;1872;51.406;6.856;2022-11-20T07:55:33;2.90;99.90
3713;DHT22;1872;51.406;6.856;2022-11-20T07:57:59;2.90;99.90
3713;DHT22;1872;51.406;6.856;2022-11-20T08:00:25;2.90;99.90
3713;DHT22;1872;51.406;6.856;2022-11-20T08:02:51;2.90;99.90
3713;DHT22;1872;51.406;6.856;2022-11-20T08:05:17;2.90;99.90
3713;DHT22;1872;51.406;6.856;2022-11-20T08:07:43;2.90;99.90
3713;DHT22;1872;51.406;6.856;2022-11-20T08:10:12;3.10;99.90
3713;DHT22;1872;51.406;6.856;2022-11-20T08:12:51;3.10;99.90
3713;DHT22;1872;51.406;6.856;2022-11-20T08:15:37;3.20;99.90
3713;DHT22;1872;51.406;6.856;2022-11-20T08:18:11;3.20;99.90
3713;DHT22;1872;51.406;6.856;2022-11-20T08:20:37;3.20;99.90
3713;DHT22;1872;51.406;6.856;2022-11-20T08:23:05;3.20;99.90
3713;DHT22;1872;51.406;6.856;2022-11-20T08:25:32;3.30;99.90
3713;DHT22;1872;51.406;6.856;2022-11-20T08:28:03;3.30;99.90
3713;DHT22;1872;51.406;6.856;2022-11-20T08:30:29;3.30;99.90
3713;DHT22;1872;51.406;6.856;2022-11-20T08:33:04;3.40;99.90
3713;DHT22;1872;51.406;6.856;2022-11-20T08:35:36;3.40;99.90
3713;DHT22;1872;51.406;6.856;2022-11-20T08:38:03;3.40;99.90
3713;DHT22;1872;51.406;6.856;2022-11-20T08:40:29;3.40;99.90
3713;DHT22;1872;51.406;6.856;2022-11-20T08:42:54;3.40;99.90
3713;DHT22;1872;51.406;6.856;2022-11-20T08:45:20;3.40;99.90
3713;DHT22;1872;51.406;6.856;2022-11-20T08:47:46;3.40;99.90
3713;DHT22;1872;51.406;6.856;2022-11-20T08:50:13;3.50;99.90
3713;DHT22;1872;51.406;6.856;2022-11-20T08:52:40;3.50;99.90
3713;DHT22;1872;51.406;6.856;2022-11-20T08:55:07;3.50;99.90
3713;DHT22;1872;51.406;6.856;2022-11-20T08:57:33;3.50;99.90
3713;DHT22;1872;51.406;6.856;2022-11-20T09:00:00;3.50;99.90
3713;DHT22;1872;51.406;6.856;2022-11-20T09:02:26;3.50;99.90
3713;DHT22;1872;51.406;6.856;2022-11-20T09:04:51;3.60;99.90
3713;DHT22;1872;51.406;6.856;2022-11-20T09:07:19;3.60;99.90
3713;DHT22;1872;51.406;6.856;2022-11-20T09:09:44;3.60;99.90
3713;DHT22;1872;51.406;6.856;2022-11-20T09:12:10;3.70;99.90
3713;DHT22;1872;51.406;6.856;2022-11-20T09:14:35;3.70;99.90
3713;DHT22;1872;51.406;6.856;2022-11-20T09:17:01;3.70;99.90
3713;DHT22;1872;51.406;6.856;2022-11-20T09:19:27;3.80;99.90
3713;DHT22;1872;51.406;6.856;2022-11-20T09:21:52;3.80;99.90
3713;DHT22;1872;51.406;6.856;2022-11-20T09:24:19;3.90;99.90
3713;DHT22;1872;51.406;6.856;2022-11-20T09:26:45;3.90;99.90
3713;DHT22;1872;51.406;6.856;2022-11-20T09:29:11;4.00;99.90
3713;DHT22;1872;51.406;6.856;2022-11-20T09:31:37;4.00;99.90
3713;DHT22;1872;51.406;6.856;2022-11-20T09:34:02;4.00;99.90
3713;DHT22;1872;51.406;6.856;2022-11-20T09:36:28;4.00;99.90
3713;DHT22;1872;51.406;6.856;2022-11-20T09:38:54;4.10;99.90
3713;DHT22;1872;51.406;6.856;2022-11-20T09:46:57;4.10;99.90
3713;DHT22;1872;51.406;6.856;2022-11-20T09:54:39;4.00;99.90
3713;DHT22;1872;51.406;6.856;2022-11-20T09:57:11;4.00;99.90
3713;DHT22;1872;51.406;6.856;2022-11-20T09:59:41;4.00;99.90
3713;DHT22;1872;51.406;6.856;2022-11-20T10:02:29;4.00;99.90
3713;DHT22;1872;51.406;6.856;2022-11-20T10:08:25;4.00;99.90
3713;DHT22;1872;51.406;6.856;2022-11-20T10:24:41;4.20;99.90
3713;DHT22;1872;51.406;6.856;2022-11-20T10:27:44;4.30;99.90
3713;DHT22;1872;51.406;6.856;2022-11-20T10:30:16;4.40;99.90
3713;DHT22;1872;51.406;6.856;2022-11-20T10:32:46;4.40;99.90
3713;DHT22;1872;51.406;6.856;2022-11-20T10:35:28;4.50;99.90
3713;DHT22;1872;51.406;6.856;2022-11-20T10:37:59;4.60;99.90
3713;DHT22;1872;51.406;6.856;2022-11-20T10:40:31;4.70;99.90
3713;DHT22;1872;51.406;6.856;2022-11-20T10:43:02;4.70;99.90
3713;DHT22;1872;51.406;6.856;2022-11-20T10:45:56;4.80;99.90
3713;DHT22;1872;51.406;6.856;2022-11-20T10:48:28;4.80;99.90
3713;DHT22;1872;51.406;6.856;2022-11-20T10:51:13;4.80;99.90
3713;DHT22;1872;51.406;6.856;2022-11-20T10:53:51;4.90;99.90
3713;DHT22;1872;51.406;6.856;2022-11-20T10:56:24;4.90;99.90
3713;DHT22;1872;51.406;6.856;2022-11-20T10:59:27;5.00;99.90
3713;DHT22;1872;51.406;6.856;2022-11-20T11:01:56;5.10;99.90
3713;DHT22;1872;51.406;6.856;2022-11-20T11:04:42;5.20;99.90
3713;DHT22;1872;51.406;6.856;2022-11-20T11:07:24;5.20;99.90
3713;DHT22;1872;51.406;6.856;2022-11-20T11:09:53;5.30;99.90
3713;DHT22;1872;51.406;6.856;2022-11-20T11:12:21;5.30;99.90
3713;DHT22;1872;51.406;6.856;2022-11-20T11:14:50;5.30;99.90
3713;DHT22;1872;51.406;6.856;2022-11-20T11:17:27;5.30;99.90
3713;DHT22;1872;51.406;6.856;2022-11-20T11:20:01;5.30;99.90
3713;DHT22;1872;51.406;6.856;2022-11-20T11:22:30;5.30;99.90
3713;DHT22;1872;51.406;6.856;2022-11-20T11:24:56;5.30;99.90
3713;DHT22;1872;51.406;6.856;2022-11-20T11:27:22;5.30;99.90
3713;DHT22;1872;51.406;6.856;2022-11-20T11:29:48;5.30;99.90
3713;DHT22;1872;51.406;6.856;2022-11-20T11:32:21;5.30;99.90
3713;DHT22;1872;51.406;6.856;2022-11-20T11:35:04;5.30;99.90
3713;DHT22;1872;51.406;6.856;2022-11-20T11:37:35;5.20;99.90
3713;DHT22;1872;51.406;6.856;2022-11-20T11:40:03;5.30;99.90
3713;DHT22;1872;51.406;6.856;2022-11-20T11:42:56;5.30;99.90
3713;DHT22;1872;51.406;6.856;2022-11-20T11:45:23;5.30;99.90
3713;DHT22;1872;51.406;6.856;2022-11-20T11:47:51;5.30;99.90
3713;DHT22;1872;51.406;6.856;2022-11-20T11:53:14;5.20;99.90
3713;DHT22;1872;51.406;6.856;2022-11-20T11:56:03;5.20;99.90
3713;DHT22;1872;51.406;6.856;2022-11-20T11:58:47;5.20;99.90
3713;DHT22;1872;51.406;6.856;2022-11-20T12:04:57;5.30;99.90
3713;DHT22;1872;51.406;6.856;2022-11-20T12:07:19;5.30;99.90
3713;DHT22;1872;51.406;6.856;2022-11-20T12:09:49;5.30;99.90
3713;DHT22;1872;51.406;6.856;2022-11-20T12:12:40;5.30;99.90
3713;DHT22;1872;51.406;6.856;2022-11-20T12:15:12;5.30;99.90
3713;DHT22;1872;51.406;6.856;2022-11-20T12:17:41;5.40;99.90
3713;DHT22;1872;51.406;6.856;2022-11-20T12:20:13;5.40;99.90
3713;DHT22;1872;51.406;6.856;2022-11-20T12:23:21;5.40;99.90
3713;DHT22;1872;51.406;6.856;2022-11-20T12:25:54;5.40;99.90
3713;DHT22;1872;51.406;6.856;2022-11-20T12:28:34;5.40;99.90
3713;DHT22;1872;51.406;6.856;2022-11-20T12:39:39;5.50;99.90
3713;DHT22;1872;51.406;6.856;2022-11-20T12:45:38;5.50;99.90
3713;DHT22;1872;51.406;6.856;2022-11-20T12:56:56;5.60;99.90
3713;DHT22;1872;51.406;6.856;2022-11-20T13:02:27;5.60;99.90
3713;DHT22;1872;51.406;6.856;2022-11-20T13:07:24;5.60;99.90
3713;DHT22;1872;51.406;6.856;2022-11-20T13:09:51;5.60;99.90
3713;DHT22;1872;51.406;6.856;2022-11-20T13:12:30;5.60;99.90
3713;DHT22;1872;51.406;6.856;2022-11-20T13:15:26;5.60;99.90
3713;DHT22;1872;51.406;6.856;2022-11-20T13:17:59;5.60;99.90
3713;DHT22;1872;51.406;6.856;2022-11-20T13:20:26;5.60;99.90
3713;DHT22;1872;51.406;6.856;2022-11-20T13:22:53;5.60;99.90
3713;DHT22;1872;51.406;6.856;2022-11-20T13:25:28;5.60;99.90
3713;DHT22;1872;51.406;6.856;2022-11-20T13:27:55;5.60;99.90
3713;DHT22;1872;51.406;6.856;2022-11-20T13:30:28;5.60;99.90
3713;DHT22;1872;51.406;6.856;2022-11-20T13:33:06;5.60;99.90
3713;DHT22;1872;51.406;6.856;2022-11-20T13:35:35;5.60;99.90
3713;DHT22;1872;51.406;6.856;2022-11-20T13:38:13;5.60;99.90
3713;DHT22;1872;51.406;6.856;2022-11-20T13:41:00;5.60;99.90
3713;DHT22;1872;51.406;6.856;2022-11-20T13:43:47;5.60;99.90
3713;DHT22;1872;51.406;6.856;2022-11-20T13:46:13;5.50;99.90
3713;DHT22;1872;51.406;6.856;2022-11-20T13:48:44;5.50;99.90
3713;DHT22;1872;51.406;6.856;2022-11-20T13:51:42;5.50;99.90
3713;DHT22;1872;51.406;6.856;2022-11-20T14:02:20;5.40;99.90
3713;DHT22;1872;51.406;6.856;2022-11-20T14:04:52;5.40;99.90
3713;DHT22;1872;51.406;6.856;2022-11-20T14:07:20;5.40;99.90
3713;DHT22;1872;51.406;6.856;2022-11-20T14:09:52;5.40;99.90
3713;DHT22;1872;51.406;6.856;2022-11-20T14:12:21;5.50;99.90
3713;DHT22;1872;51.406;6.856;2022-11-20T14:14:52;5.50;99.90
3713;DHT22;1872;51.406;6.856;2022-11-20T14:17:23;5.50;99.90
3713;DHT22;1872;51.406;6.856;2022-11-20T14:19:51;5.50;99.90
3713;DHT22;1872;51.406;6.856;2022-11-20T14:22:24;5.50;99.90
3713;DHT22;1872;51.406;6.856;2022-11-20T14:27:41;5.50;99.90
3713;DHT22;1872;51.406;6.856;2022-11-20T14:30:16;5.50;99.90
3713;DHT22;1872;51.406;6.856;2022-11-20T14:32:45;5.50;99.90
3713;DHT22;1872;51.406;6.856;2022-11-20T14:35:24;5.50;99.90
3713;DHT22;1872;51.406;6.856;2022-11-20T14:37:51;5.50;99.90
3713;DHT22;1872;51.406;6.856;2022-11-20T14:42:49;5.50;99.90
3713;DHT22;1872;51.406;6.856;2022-11-20T14:45:16;5.50;99.90
3713;DHT22;1872;51.406;6.856;2022-11-20T14:47:42;5.50;99.90
3713;DHT22;1872;51.406;6.856;2022-11-20T14:50:16;5.50;99.90
3713;DHT22;1872;51.406;6.856;2022-11-20T14:52:57;5.50;99.90
3713;DHT22;1872;51.406;6.856;2022-11-20T14:55:35;5.50;99.90
3713;DHT22;1872;51.406;6.856;2022-11-20T14:58:26;5.50;99.90
3713;DHT22;1872;51.406;6.856;2022-11-20T15:00:58;5.50;99.90
3713;DHT22;1872;51.406;6.856;2022-11-20T15:03:40;5.50;99.90
3713;DHT22;1872;51.406;6.856;2022-11-20T15:06:07;5.40;99.90
3713;DHT22;1872;51.406;6.856;2022-11-20T15:08:34;5.40;99.90
3713;DHT22;1872;51.406;6.856;2022-11-20T15:11:00;5.40;99.90
3713;DHT22;1872;51.406;6.856;2022-11-20T15:13:37;5.40;99.90
3713;DHT22;1872;51.406;6.856;2022-11-20T15:16:17;5.40;99.90
3713;DHT22;1872;51.406;6.856;2022-11-20T15:18:44;5.40;99.90
3713;DHT22;1872;51.406;6.856;2022-11-20T15:21:11;5.40;99.90
3713;DHT22;1872;51.406;6.856;2022-11-20T15:23:38;5.40;99.90
3713;DHT22;1872;51.406;6.856;2022-11-20T15:26:07;5.40;99.90
3713;DHT22;1872;51.406;6.856;2022-11-20T15:28:36;5.40;99.90
3713;DHT22;1872;51.406;6.856;2022-11-20T15:31:03;5.40;99.90
3713;DHT22;1872;51.406;6.856;2022-11-20T15:33:30;5.30;99.90
3713;DHT22;1872;51.406;6.856;2022-11-20T15:35:56;5.40;99.90
3713;DHT22;1872;51.406;6.856;2022-11-20T15:38:22;5.30;99.90
3713;DHT22;1872;51.406;6.856;2022-11-20T15:40:47;5.30;99.90
3713;DHT22;1872;51.406;6.856;2022-11-20T15:43:13;5.30;99.90
3713;DHT22;1872;51.406;6.856;2022-11-20T15:45:49;5.30;99.90
3713;DHT22;1872;51.406;6.856;2022-11-20T15:48:22;5.40;99.90
3713;DHT22;1872;51.406;6.856;2022-11-20T15:51:16;5.40;99.90
3713;DHT22;1872;51.406;6.856;2022-11-20T15:53:38;5.40;99.90
3713;DHT22;1872;51.406;6.856;2022-11-20T15:56:04;5.40;99.90
3713;DHT22;1872;51.406;6.856;2022-11-20T15:58:30;5.40;99.90
3713;DHT22;1872;51.406;6.856;2022-11-20T16:00:56;5.40;99.90
3713;DHT22;1872;51.406;6.856;2022-11-20T16:03:23;5.40;99.90
3713;DHT22;1872;51.406;6.856;2022-11-20T16:05:48;5.40;99.90
3713;DHT22;1872;51.406;6.856;2022-11-20T16:08:14;5.40;99.90
3713;DHT22;1872;51.406;6.856;2022-11-20T16:10:40;5.40;99.90
3713;DHT22;1872;51.406;6.856;2022-11-20T16:13:13;5.40;99.90
3713;DHT22;1872;51.406;6.856;2022-11-20T16:15:59;5.40;99.90
3713;DHT22;1872;51.406;6.856;2022-11-20T16:18:25;5.40;99.90
3713;DHT22;1872;51.406;6.856;2022-11-20T16:20:52;5.40;99.90
3713;DHT22;1872;51.406;6.856;2022-11-20T16:23:19;5.40;99.90
3713;DHT22;1872;51.406;6.856;2022-11-20T16:25:46;5.40;99.90
3713;DHT22;1872;51.406;6.856;2022-11-20T16:28:11;5.40;99.90
3713;DHT22;1872;51.406;6.856;2022-11-20T16:30:38;5.40;99.90
3713;DHT22;1872;51.406;6.856;2022-11-20T16:33:04;5.40;99.90
3713;DHT22;1872;51.406;6.856;2022-11-20T16:35:34;5.40;99.90
3713;DHT22;1872;51.406;6.856;2022-11-20T16:38:00;5.40;99.90
3713;DHT22;1872;51.406;6.856;2022-11-20T16:40:25;5.40;99.90
3713;DHT22;1872;51.406;6.856;2022-11-20T16:42:51;5.40;99.90
3713;DHT22;1872;51.406;6.856;2022-11-20T16:45:17;5.40;99.90
3713;DHT22;1872;51.406;6.856;2022-11-20T16:47:43;5.40;99.90
3713;DHT22;1872;51.406;6.856;2022-11-20T16:50:09;5.40;99.90
3713;DHT22;1872;51.406;6.856;2022-11-20T16:52:35;5.50;99.90
3713;DHT22;1872;51.406;6.856;2022-11-20T16:55:01;5.50;99.90
3713;DHT22;1872;51.406;6.856;2022-11-20T16:57:30;5.60;99.90
3713;DHT22;1872;51.406;6.856;2022-11-20T16:59:57;5.60;99.90
3713;DHT22;1872;51.406;6.856;2022-11-20T17:02:23;5.60;99.90
3713;DHT22;1872;51.406;6.856;2022-11-20T17:04:49;5.60;99.90
3713;DHT22;1872;51.406;6.856;2022-11-20T17:07:15;5.60;99.90
3713;DHT22;1872;51.406;6.856;2022-11-20T17:09:40;5.60;99.90
3713;DHT22;1872;51.406;6.856;2022-11-20T17:12:06;5.60;99.90
3713;DHT22;1872;51.406;6.856;2022-11-20T17:14:32;5.70;99.90
3713;DHT22;1872;51.406;6.856;2022-11-20T17:16:57;5.60;99.90
3713;DHT22;1872;51.406;6.856;2022-11-20T17:19:23;5.70;99.90
3713;DHT22;1872;51.406;6.856;2022-11-20T17:21:48;5.70;99.90
3713;DHT22;1872;51.406;6.856;2022-11-20T17:24:16;5.70;99.90
3713;DHT22;1872;51.406;6.856;2022-11-20T17:26:43;5.70;99.90
3713;DHT22;1872;51.406;6.856;2022-11-20T17:29:17;5.70;99.90
3713;DHT22;1872;51.406;6.856;2022-11-20T17:31:44;5.70;99.90
3713;DHT22;1872;51.406;6.856;2022-11-20T17:34:12;5.70;99.90
3713;DHT22;1872;51.406;6.856;2022-11-20T17:36:38;5.70;99.90
3713;DHT22;1872;51.406;6.856;2022-11-20T17:39:06;5.70;99.90
3713;DHT22;1872;51.406;6.856;2022-11-20T17:41:32;5.80;99.90
3713;DHT22;1872;51.406;6.856;2022-11-20T17:44:00;5.80;99.90
3713;DHT22;1872;51.406;6.856;2022-11-20T17:46:28;5.80;99.90
3713;DHT22;1872;51.406;6.856;2022-11-20T17:48:55;5.80;99.90